createdAt,value
2024-04-30T00:01:25.039Z,22.55
2024-04-30T00:04:12.614Z,22.50
2024-04-30T00:06:59.704Z,22.46
2024-04-30T00:09:46.636Z,22.41
2024-04-30T00:12:33.707Z,22.37
2024-04-30T00:15:20.634Z,22.33
2024-04-30T00:18:07.610Z,22.30
2024-04-30T00:20:54.575Z,22.26
2024-04-30T00:23:41.608Z,22.23
2024-04-30T00:26:28.561Z,22.18
2024-04-30T00:29:15.806Z,22.13
2024-04-30T00:32:02.878Z,22.07
2024-04-30T00:34:50.001Z,22.02
2024-04-30T00:37:37.329Z,22.00
2024-04-30T00:40:24.381Z,21.94
2024-04-30T00:43:11.405Z,21.92
2024-04-30T00:45:58.411Z,21.87
2024-04-30T00:48:45.564Z,21.85
2024-04-30T00:51:32.709Z,21.82
2024-04-30T00:54:20.341Z,21.78
2024-04-30T00:57:08.087Z,21.75
2024-04-30T00:59:55.100Z,21.70
2024-04-30T01:02:42.132Z,21.66
2024-04-30T01:05:29.115Z,21.63
2024-04-30T01:08:16.055Z,21.59
2024-04-30T01:11:03.277Z,21.54
2024-04-30T01:13:50.232Z,21.47
2024-04-30T01:16:37.249Z,21.42
2024-04-30T01:19:24.268Z,21.38
2024-04-30T01:22:11.238Z,21.35
2024-04-30T01:24:58.305Z,21.32
2024-04-30T01:27:45.288Z,21.31
2024-04-30T01:30:32.255Z,21.28
2024-04-30T01:33:19.646Z,21.26
2024-04-30T01:36:06.729Z,21.22
2024-04-30T01:38:53.655Z,21.21
2024-04-30T01:41:43.592Z,21.16
2024-04-30T01:44:31.065Z,21.14
2024-04-30T01:47:18.019Z,21.11
2024-04-30T01:50:07.062Z,21.07
2024-04-30T01:52:54.152Z,21.04
2024-04-30T01:55:41.258Z,21.01
2024-04-30T01:58:28.296Z,20.99
2024-04-30T02:01:18.503Z,20.96
2024-04-30T02:04:05.849Z,20.94
2024-04-30T02:06:52.792Z,20.91
2024-04-30T02:09:39.748Z,20.86
2024-04-30T02:12:26.954Z,20.81
2024-04-30T02:15:13.932Z,20.77
2024-04-30T02:18:00.911Z,20.74
2024-04-30T02:20:47.914Z,20.73
2024-04-30T02:23:34.880Z,20.71
2024-04-30T02:26:21.856Z,20.67
2024-04-30T02:29:08.940Z,20.61
2024-04-30T02:32:14.520Z,20.58
2024-04-30T02:35:01.489Z,20.55
2024-04-30T02:37:48.442Z,20.49
2024-04-30T02:40:35.512Z,20.47
2024-04-30T02:43:22.563Z,20.45
2024-04-30T02:46:09.600Z,20.41
2024-04-30T02:48:56.542Z,20.40
2024-04-30T02:51:43.518Z,20.37
2024-04-30T02:54:30.476Z,20.34
2024-04-30T02:57:17.413Z,20.27
2024-04-30T03:00:04.686Z,20.22
2024-04-30T03:02:51.654Z,20.19
2024-04-30T03:05:38.584Z,20.17
2024-04-30T03:08:25.579Z,20.14
2024-04-30T03:11:12.559Z,20.10
2024-04-30T03:13:59.554Z,20.09
2024-04-30T03:16:46.497Z,20.04
2024-04-30T03:19:35.770Z,20.02
2024-04-30T03:22:24.591Z,19.99
2024-04-30T03:25:11.758Z,19.96
2024-04-30T03:28:02.180Z,19.95
2024-04-30T03:30:52.135Z,19.93
2024-04-30T03:33:39.215Z,19.89
2024-04-30T03:36:26.338Z,19.86
2024-04-30T03:39:13.671Z,19.82
2024-04-30T03:42:00.961Z,19.79
2024-04-30T03:44:50.370Z,19.76
2024-04-30T03:47:37.534Z,19.73
2024-04-30T03:50:24.857Z,19.70
2024-04-30T03:53:11.850Z,19.64
2024-04-30T03:55:58.789Z,19.62
2024-04-30T03:58:45.857Z,19.58
2024-04-30T04:01:33.366Z,19.54
2024-04-30T04:04:20.442Z,19.49
2024-04-30T04:07:07.666Z,19.47
2024-04-30T04:09:54.724Z,19.44
2024-04-30T04:13:00.424Z,19.42
2024-04-30T04:15:47.408Z,19.37
2024-04-30T04:18:34.489Z,19.36
2024-04-30T04:21:23.980Z,19.29
2024-04-30T04:24:11.288Z,19.28
2024-04-30T04:26:58.222Z,19.25
2024-04-30T04:29:45.191Z,19.22
2024-04-30T04:32:32.502Z,19.22
2024-04-30T04:35:19.693Z,19.21
2024-04-30T04:38:06.675Z,19.20
2024-04-30T04:40:53.611Z,19.19
2024-04-30T04:43:40.770Z,19.18
2024-04-30T04:46:27.805Z,19.17
2024-04-30T04:49:14.780Z,19.16
2024-04-30T04:52:01.875Z,19.15
2024-04-30T04:54:48.939Z,19.14
2024-04-30T04:57:35.969Z,19.12
2024-04-30T05:00:25.067Z,19.11
2024-04-30T05:03:13.659Z,19.09
2024-04-30T05:06:02.351Z,19.08
2024-04-30T05:08:49.233Z,19.06
2024-04-30T05:11:36.221Z,19.05
2024-04-30T05:14:23.273Z,19.04
2024-04-30T05:17:10.461Z,19.03
2024-04-30T05:19:57.493Z,19.02
2024-04-30T05:22:44.457Z,19.00
2024-04-30T05:25:31.457Z,19.00
2024-04-30T05:28:18.460Z,19.00
2024-04-30T05:31:05.501Z,19.00
2024-04-30T05:33:52.470Z,18.99
2024-04-30T05:36:39.694Z,18.99
2024-04-30T05:39:26.796Z,19.00
2024-04-30T05:42:13.892Z,18.99
2024-04-30T05:45:01.104Z,18.99
2024-04-30T05:47:48.156Z,18.98
2024-04-30T05:50:35.208Z,19.44
2024-04-30T05:53:22.173Z,20.49
2024-04-30T05:56:09.158Z,21.27
2024-04-30T05:58:56.105Z,20.94
2024-04-30T06:01:43.103Z,20.66
2024-04-30T06:04:30.213Z,20.40
2024-04-30T06:07:17.287Z,20.18
2024-04-30T06:10:04.607Z,20.02
2024-04-30T06:12:51.998Z,19.86
2024-04-30T06:15:38.957Z,19.75
2024-04-30T06:18:26.137Z,19.64
2024-04-30T06:21:19.881Z,19.55
2024-04-30T06:24:10.745Z,19.48
2024-04-30T06:26:57.687Z,19.42
2024-04-30T06:29:44.622Z,19.37
2024-04-30T06:32:31.593Z,19.34
2024-04-30T06:35:18.565Z,19.30
2024-04-30T06:38:05.671Z,19.28
2024-04-30T06:40:52.774Z,19.26
2024-04-30T06:43:39.933Z,19.26
2024-04-30T06:46:26.992Z,19.24
2024-04-30T06:49:13.987Z,19.24
2024-04-30T06:52:00.996Z,19.25
2024-04-30T06:54:47.944Z,19.26
2024-04-30T06:57:34.890Z,19.28
2024-04-30T07:00:21.843Z,19.29
2024-04-30T07:03:12.080Z,19.31
2024-04-30T07:05:59.093Z,19.31
2024-04-30T07:08:46.972Z,19.34
2024-04-30T07:11:34.079Z,19.37
2024-04-30T07:14:21.062Z,19.43
2024-04-30T07:17:09.191Z,19.52
2024-04-30T07:19:56.678Z,19.59
2024-04-30T07:22:43.713Z,19.68
2024-04-30T07:25:33.191Z,19.77
2024-04-30T07:28:20.234Z,19.85
2024-04-30T07:31:07.318Z,19.91
2024-04-30T07:33:54.331Z,20.00
2024-04-30T07:36:41.326Z,20.08
2024-04-30T07:39:28.275Z,20.12
2024-04-30T07:42:15.210Z,20.18
2024-04-30T07:45:02.193Z,20.23
2024-04-30T07:47:51.449Z,20.30
2024-04-30T07:50:38.869Z,20.35
2024-04-30T07:53:25.811Z,20.42
2024-04-30T07:56:12.764Z,20.47
2024-04-30T07:58:59.759Z,20.54
2024-04-30T08:01:46.848Z,20.59
2024-04-30T08:04:34.498Z,20.64
2024-04-30T08:07:21.508Z,20.70
2024-04-30T08:10:08.569Z,20.74
2024-04-30T08:12:55.556Z,20.80
2024-04-30T08:15:42.552Z,20.84
2024-04-30T08:18:29.509Z,20.90
2024-04-30T08:21:16.812Z,20.95
2024-04-30T08:24:04.010Z,21.00
2024-04-30T08:26:50.987Z,21.06
2024-04-30T08:29:38.078Z,21.12
2024-04-30T08:32:25.551Z,21.17
2024-04-30T08:35:12.598Z,21.22
2024-04-30T08:38:01.331Z,21.28
2024-04-30T08:40:49.422Z,21.33
2024-04-30T08:43:37.644Z,21.40
2024-04-30T08:46:25.568Z,21.46
2024-04-30T08:49:20.077Z,21.52
2024-04-30T08:52:11.314Z,21.58
2024-04-30T08:54:58.743Z,21.65
2024-04-30T08:57:45.970Z,21.70
2024-04-30T09:00:33.120Z,21.75
2024-04-30T09:03:25.184Z,21.80
2024-04-30T09:06:12.494Z,21.86
2024-04-30T09:08:59.521Z,21.94
2024-04-30T09:11:46.943Z,22.00
2024-04-30T09:14:43.370Z,22.06
2024-04-30T09:17:33.266Z,22.14
2024-04-30T09:20:21.345Z,22.22
2024-04-30T09:23:08.303Z,22.27
2024-04-30T09:25:56.042Z,22.34
2024-04-30T09:28:43.805Z,22.40
2024-04-30T09:31:38.111Z,22.47
2024-04-30T09:34:25.224Z,22.53
2024-04-30T09:37:22.701Z,22.60
2024-04-30T09:40:10.234Z,22.65
2024-04-30T09:42:57.476Z,22.72
2024-04-30T09:45:44.434Z,22.78
2024-04-30T09:48:31.921Z,22.85
2024-04-30T09:51:19.253Z,22.92
2024-04-30T09:54:06.277Z,22.98
2024-04-30T09:56:54.413Z,23.05
2024-04-30T09:59:42.102Z,23.12
2024-04-30T10:02:30.302Z,23.18
2024-04-30T10:05:32.106Z,23.25
2024-04-30T10:08:20.232Z,23.31
2024-04-30T10:11:08.126Z,23.37
2024-04-30T10:13:55.860Z,23.43
2024-04-30T10:16:58.530Z,23.50
2024-04-30T10:19:47.394Z,23.57
2024-04-30T10:22:38.278Z,23.64
2024-04-30T10:25:25.753Z,23.68
2024-04-30T10:28:15.157Z,23.72
2024-04-30T10:31:12.796Z,23.77
2024-04-30T10:34:08.179Z,23.83
2024-04-30T10:36:55.188Z,23.88
2024-04-30T10:39:42.324Z,23.93
2024-04-30T10:42:34.475Z,23.98
2024-04-30T10:45:22.971Z,24.04
2024-04-30T10:48:10.944Z,24.09
2024-04-30T10:51:01.225Z,24.14
2024-04-30T10:53:49.368Z,24.21
2024-04-30T10:56:36.349Z,24.27
2024-04-30T10:59:27.662Z,24.68
2024-04-30T11:02:18.835Z,25.21
2024-04-30T11:05:15.704Z,25.63
2024-04-30T11:08:03.466Z,25.88
2024-04-30T11:10:50.571Z,26.00
2024-04-30T11:13:37.819Z,26.10
2024-04-30T11:16:24.823Z,26.20
2024-04-30T11:19:13.260Z,26.34
2024-04-30T11:22:00.435Z,26.43
2024-04-30T11:24:47.416Z,26.54
2024-04-30T11:27:34.385Z,26.61
2024-04-30T11:30:21.356Z,26.70
2024-04-30T11:33:08.422Z,26.80
2024-04-30T11:35:55.415Z,26.88
2024-04-30T11:38:44.177Z,27.01
2024-04-30T11:41:31.166Z,27.15
2024-04-30T11:44:18.108Z,27.24
2024-04-30T11:47:07.081Z,27.32
2024-04-30T11:49:54.081Z,27.41
2024-04-30T11:52:41.152Z,27.49
2024-04-30T11:55:28.294Z,27.57
2024-04-30T11:58:17.888Z,27.62
2024-04-30T12:01:05.280Z,27.68
2024-04-30T12:03:52.374Z,27.73
2024-04-30T12:06:39.664Z,27.78
2024-04-30T12:09:26.947Z,27.83
2024-04-30T12:12:13.939Z,27.90
2024-04-30T12:15:00.939Z,27.95
2024-04-30T12:17:48.047Z,28.00
2024-04-30T12:20:35.078Z,28.03
2024-04-30T12:23:22.069Z,28.07
2024-04-30T12:26:09.808Z,28.11
2024-04-30T12:28:56.839Z,28.15
2024-04-30T12:31:44.270Z,28.19
2024-04-30T12:34:31.496Z,28.22
2024-04-30T12:37:20.233Z,28.26
2024-04-30T12:40:08.772Z,28.30
2024-04-30T12:42:55.756Z,28.34
2024-04-30T12:45:42.931Z,28.37
2024-04-30T12:48:29.972Z,28.40
2024-04-30T12:51:17.707Z,28.44
2024-04-30T12:54:04.983Z,28.47
2024-04-30T12:56:52.011Z,28.50
2024-04-30T12:59:40.550Z,28.52
2024-04-30T13:02:27.969Z,28.55
2024-04-30T13:05:15.376Z,28.56
2024-04-30T13:08:02.632Z,28.62
2024-04-30T13:10:50.072Z,28.65
2024-04-30T13:13:38.083Z,28.68
2024-04-30T13:16:25.296Z,28.71
2024-04-30T13:19:12.519Z,28.75
2024-04-30T13:21:59.771Z,28.76
2024-04-30T13:24:48.264Z,28.81
2024-04-30T13:27:35.675Z,28.84
2024-04-30T13:30:23.045Z,28.87
2024-04-30T13:33:12.158Z,28.90
2024-04-30T13:35:59.463Z,28.92
2024-04-30T13:38:46.587Z,28.96
2024-04-30T13:41:34.219Z,28.98
2024-04-30T13:44:21.252Z,29.01
2024-04-30T13:47:08.373Z,29.05
2024-04-30T13:49:55.746Z,29.09
2024-04-30T13:52:42.930Z,29.12
2024-04-30T13:55:29.978Z,29.13
2024-04-30T13:58:17.012Z,29.17
2024-04-30T14:01:04.171Z,29.19
2024-04-30T14:03:51.382Z,29.25
2024-04-30T14:06:39.575Z,29.29
2024-04-30T14:09:29.600Z,29.30
2024-04-30T14:12:16.716Z,29.29
2024-04-30T14:15:04.216Z,29.32
2024-04-30T14:17:51.221Z,29.34
2024-04-30T14:20:38.206Z,29.37
2024-04-30T14:23:26.291Z,29.40
2024-04-30T14:26:16.676Z,29.44
2024-04-30T14:29:10.193Z,29.46
2024-04-30T14:31:57.324Z,29.48
2024-04-30T14:34:44.349Z,29.51
2024-04-30T14:37:31.467Z,29.55
2024-04-30T14:40:18.497Z,29.58
2024-04-30T14:43:05.533Z,29.60
2024-04-30T14:45:52.594Z,29.62
2024-04-30T14:48:39.737Z,29.64
2024-04-30T14:51:36.495Z,29.67
2024-04-30T14:54:23.536Z,29.67
2024-04-30T14:57:10.462Z,29.69
2024-04-30T14:59:57.381Z,29.69
2024-04-30T15:02:44.457Z,29.71
2024-04-30T15:05:32.892Z,29.71
2024-04-30T15:08:20.062Z,29.74
2024-04-30T15:11:18.305Z,29.74
2024-04-30T15:14:05.411Z,29.76
2024-04-30T15:16:52.545Z,29.77
2024-04-30T15:19:39.984Z,29.78
2024-04-30T15:22:26.993Z,29.78
2024-04-30T15:25:14.147Z,29.78
2024-04-30T15:28:01.141Z,29.82
2024-04-30T15:30:48.157Z,29.82
2024-04-30T15:33:36.567Z,29.83
2024-04-30T15:36:23.702Z,29.84
2024-04-30T15:39:10.711Z,29.85
2024-04-30T15:41:57.978Z,29.86
2024-04-30T15:44:44.963Z,29.85
2024-04-30T15:47:31.960Z,29.86
2024-04-30T15:50:19.136Z,29.85
2024-04-30T15:53:06.081Z,29.82
2024-04-30T15:56:05.257Z,29.81
2024-04-30T15:58:59.967Z,29.78
2024-04-30T16:01:47.053Z,29.74
2024-04-30T16:04:34.196Z,29.69
2024-04-30T16:07:21.324Z,29.64
2024-04-30T16:10:08.567Z,29.60
2024-04-30T16:12:56.673Z,29.57
2024-04-30T16:15:43.537Z,29.55
2024-04-30T16:18:30.627Z,29.53
2024-04-30T16:21:17.655Z,29.55
2024-04-30T16:24:06.855Z,29.55
2024-04-30T16:26:54.977Z,29.51
2024-04-30T16:29:41.848Z,29.46
2024-04-30T16:32:29.451Z,29.45
2024-04-30T16:35:16.519Z,29.47
2024-04-30T16:38:03.541Z,29.47
2024-04-30T16:40:50.530Z,29.49
2024-04-30T16:43:37.473Z,29.51
2024-04-30T16:46:24.505Z,29.52
2024-04-30T16:49:11.504Z,29.52
2024-04-30T16:51:58.597Z,29.53
2024-04-30T16:54:45.722Z,29.50
2024-04-30T16:57:32.799Z,29.51
2024-04-30T17:00:20.106Z,29.51
2024-04-30T17:03:07.168Z,29.48
2024-04-30T17:05:54.189Z,29.49
2024-04-30T17:08:41.689Z,29.47
2024-04-30T17:11:28.647Z,29.46
2024-04-30T17:14:15.607Z,29.45
2024-04-30T17:17:02.750Z,29.44
2024-04-30T17:19:49.753Z,29.42
2024-04-30T17:22:37.583Z,29.43
2024-04-30T17:25:24.538Z,29.43
2024-04-30T17:28:11.480Z,29.42
2024-04-30T17:30:58.534Z,29.42
2024-04-30T17:33:46.773Z,29.41
2024-04-30T17:36:39.240Z,29.39
2024-04-30T17:39:26.227Z,29.36
2024-04-30T17:42:13.176Z,29.33
2024-04-30T17:45:00.161Z,29.31
2024-04-30T17:47:47.315Z,29.26
2024-04-30T17:50:34.699Z,29.23
2024-04-30T17:53:22.605Z,29.21
2024-04-30T17:56:09.571Z,29.19
2024-04-30T17:58:56.528Z,29.18
2024-04-30T18:01:44.488Z,29.14
2024-04-30T18:04:31.581Z,29.11
2024-04-30T18:07:18.560Z,29.08
2024-04-30T18:10:05.628Z,29.06
2024-04-30T18:12:52.653Z,29.05
2024-04-30T18:15:39.760Z,29.03
2024-04-30T18:18:27.710Z,29.01
2024-04-30T18:21:22.263Z,28.99
2024-04-30T18:24:09.276Z,28.94
2024-04-30T18:26:56.221Z,28.90
2024-04-30T18:29:43.256Z,28.84
2024-04-30T18:32:30.275Z,28.81
2024-04-30T18:35:17.296Z,28.76
2024-04-30T18:38:05.489Z,28.71
2024-04-30T18:40:52.500Z,28.68
2024-04-30T18:43:41.162Z,28.65
2024-04-30T18:46:28.301Z,28.62
2024-04-30T18:49:15.458Z,28.58
2024-04-30T18:52:02.581Z,28.53
2024-04-30T18:54:49.638Z,28.49
2024-04-30T18:57:37.121Z,28.45
2024-04-30T19:00:24.139Z,28.40
2024-04-30T19:03:12.093Z,28.38
2024-04-30T19:05:59.105Z,28.34
2024-04-30T19:08:46.380Z,28.31
2024-04-30T19:11:33.537Z,28.27
2024-04-30T19:14:20.701Z,28.25
2024-04-30T19:17:07.774Z,28.24
2024-04-30T19:19:54.715Z,28.22
2024-04-30T19:22:41.993Z,28.20
2024-04-30T19:25:29.048Z,28.19
2024-04-30T19:28:16.010Z,28.16
2024-04-30T19:31:03.065Z,28.15
2024-04-30T19:33:50.202Z,28.13
2024-04-30T19:36:37.302Z,28.10
2024-04-30T19:39:24.364Z,28.07
2024-04-30T19:42:11.400Z,28.05
2024-04-30T19:44:58.382Z,28.01
2024-04-30T19:47:45.382Z,27.99
2024-04-30T19:50:32.432Z,27.97
2024-04-30T19:53:19.366Z,27.94
2024-04-30T19:56:06.913Z,27.93
2024-04-30T19:58:57.401Z,27.89
2024-04-30T20:01:45.569Z,27.87
2024-04-30T20:04:32.605Z,27.83
2024-04-30T20:07:19.605Z,27.80
2024-04-30T20:10:06.980Z,27.77
2024-04-30T20:12:54.491Z,27.73
2024-04-30T20:15:41.691Z,27.71
2024-04-30T20:18:28.674Z,27.68
2024-04-30T20:21:16.514Z,27.64
2024-04-30T20:24:03.864Z,27.60
2024-04-30T20:26:50.826Z,27.57
2024-04-30T20:29:37.967Z,27.54
2024-04-30T20:32:25.022Z,27.52
2024-04-30T20:35:12.067Z,27.49
2024-04-30T20:37:59.023Z,27.45
2024-04-30T20:40:45.976Z,27.41
2024-04-30T20:43:33.024Z,27.37
2024-04-30T20:46:20.509Z,27.34
2024-04-30T20:49:07.633Z,27.30
2024-04-30T20:51:54.870Z,27.27
2024-04-30T20:54:41.911Z,27.24
2024-04-30T20:57:28.901Z,27.20
2024-04-30T21:00:16.321Z,27.17
2024-04-30T21:03:03.530Z,27.14
2024-04-30T21:05:50.670Z,27.10
2024-04-30T21:08:38.564Z,27.06
2024-04-30T21:11:26.005Z,27.03
2024-04-30T21:14:13.050Z,26.99
2024-04-30T21:17:02.244Z,26.96
2024-04-30T21:19:52.247Z,26.92
2024-04-30T21:22:39.321Z,26.88
2024-04-30T21:25:26.336Z,26.84
2024-04-30T21:28:13.332Z,26.82
2024-04-30T21:31:00.371Z,26.77
2024-04-30T21:33:47.453Z,26.74
2024-04-30T21:36:35.038Z,26.70
2024-04-30T21:39:22.046Z,26.67
2024-04-30T21:42:09.016Z,26.63
2024-04-30T21:44:57.946Z,26.60
2024-04-30T21:47:45.187Z,26.57
2024-04-30T21:50:32.226Z,26.52
2024-04-30T21:53:19.232Z,26.49
2024-04-30T21:56:06.425Z,26.45
2024-04-30T21:58:53.372Z,26.41
2024-04-30T22:01:46.207Z,26.37
2024-04-30T22:04:33.832Z,26.33
2024-04-30T22:07:21.798Z,26.29
2024-04-30T22:10:08.758Z,26.26
2024-04-30T22:12:55.786Z,26.23
2024-04-30T22:15:44.273Z,26.19
2024-04-30T22:18:32.384Z,26.15
2024-04-30T22:21:21.188Z,26.11
2024-04-30T22:24:09.691Z,26.07
2024-04-30T22:26:56.663Z,26.03
2024-04-30T22:29:43.624Z,26.00
2024-04-30T22:32:30.680Z,25.96
2024-04-30T22:35:17.784Z,25.92
2024-04-30T22:38:04.993Z,25.87
2024-04-30T22:40:52.293Z,25.85
2024-04-30T22:43:39.378Z,25.81
2024-04-30T22:46:26.329Z,25.75
2024-04-30T22:49:13.387Z,25.72
2024-04-30T22:52:00.392Z,25.68
2024-04-30T22:54:50.968Z,25.65
2024-04-30T22:57:38.353Z,25.62
2024-04-30T23:00:25.499Z,25.57
2024-04-30T23:03:12.529Z,25.53
2024-04-30T23:05:59.513Z,25.50
2024-04-30T23:08:46.458Z,25.43
2024-04-30T23:11:33.459Z,25.41
2024-04-30T23:14:20.452Z,25.36
2024-04-30T23:17:07.459Z,25.33
2024-04-30T23:19:54.465Z,25.30
2024-04-30T23:22:41.470Z,25.26
2024-04-30T23:25:28.402Z,25.21
2024-04-30T23:28:15.402Z,25.17
2024-04-30T23:31:03.303Z,25.14
2024-04-30T23:33:51.524Z,25.09
2024-04-30T23:36:38.692Z,25.07
2024-04-30T23:39:25.875Z,25.02
2024-04-30T23:42:20.945Z,24.97
2024-04-30T23:45:10.204Z,24.93
2024-04-30T23:47:57.232Z,24.89
2024-04-30T23:50:44.206Z,24.84
2024-04-30T23:53:31.216Z,24.81
2024-04-30T23:56:18.177Z,24.76
2024-04-30T23:59:05.177Z,24.72
